LAX weather

Los Angeles International Airport
Los Angeles, California, United States

Public forecast

Using degrees Fahrenheit for public forecast. Weather courtesy of forecast.io.

METAR (pilot weather report)

Retrieved 2018/10/17 05:53 UTC (8 minutes ago):

KLAX 170553Z 02004KT 10SM CLR 19/11 A3004 RMK AO2 SLP169 T01940106 10228 20189 51014 $

TAF (pilot weather forecast)

Retrieved 2018/10/17 06:30 UTC (0 seconds ago):

TAF KLAX 170528Z 1706/1812 VRB03KT P6SM SKC FM172000 26012KT P6SM SKC FM180400 VRB03KT P6SM SKC